createdAt,value
2018-08-12T00:02:42.606Z,22.60
2018-08-12T00:07:01.694Z,22.56
2018-08-12T00:11:25.706Z,22.54
2018-08-12T01:02:39.722Z,22.02
2018-08-12T01:06:43.177Z,21.99
2018-08-12T01:10:46.619Z,21.93
2018-08-12T01:14:50.038Z,21.90
2018-08-12T01:18:53.505Z,21.86
2018-08-12T01:22:56.961Z,21.81
2018-08-12T01:27:00.422Z,21.78
2018-08-12T01:31:03.847Z,21.75
2018-08-12T01:35:08.317Z,21.72
2018-08-12T01:39:11.719Z,21.66
2018-08-12T01:43:15.182Z,21.66
2018-08-12T01:47:18.618Z,21.64
2018-08-12T01:51:22.053Z,21.62
2018-08-12T01:55:25.467Z,21.59
2018-08-12T01:59:28.897Z,21.57
2018-08-12T02:03:32.351Z,21.52
2018-08-12T02:07:35.918Z,21.45
2018-08-12T02:11:39.508Z,21.44
2018-08-12T02:15:42.986Z,21.40
2018-08-12T02:19:46.549Z,21.36
2018-08-12T02:23:50.013Z,21.30
2018-08-12T02:27:53.495Z,21.25
2018-08-12T02:31:56.971Z,21.20
2018-08-12T02:36:00.557Z,21.17
2018-08-12T02:40:05.076Z,21.13
2018-08-12T04:19:24.568Z,20.05
2018-08-12T04:23:43.971Z,20.04
2018-08-12T04:37:05.713Z,20.00
2018-08-12T05:38:41.662Z,20.69
2018-08-12T05:42:45.134Z,20.65
2018-08-12T05:46:48.682Z,20.64
2018-08-12T05:50:52.143Z,20.68
2018-08-12T05:54:55.637Z,20.78
2018-08-12T05:58:59.117Z,20.89
2018-08-12T06:03:02.604Z,20.97
2018-08-12T06:07:06.054Z,21.10
2018-08-12T06:11:09.480Z,21.19
2018-08-12T06:15:16.286Z,21.32
2018-08-12T06:19:19.903Z,21.43
2018-08-12T06:23:23.347Z,21.54
2018-08-12T06:27:26.845Z,21.71
2018-08-12T06:31:30.366Z,21.92
2018-08-12T06:35:33.873Z,22.10
2018-08-12T06:39:37.359Z,22.34
2018-08-12T06:43:40.834Z,22.54
2018-08-12T06:47:45.569Z,22.67
2018-08-12T06:51:49.138Z,22.84
2018-08-12T06:55:52.521Z,23.02
2018-08-12T06:59:56.000Z,23.19
2018-08-12T07:03:59.497Z,23.29
2018-08-12T07:08:02.972Z,23.49
2018-08-12T07:12:06.519Z,23.66
2018-08-12T07:16:09.993Z,23.87
2018-08-12T07:20:14.106Z,24.01
2018-08-12T07:24:17.567Z,24.18
2018-08-12T07:28:21.089Z,24.34
2018-08-12T07:32:24.527Z,24.53
2018-08-12T07:36:27.997Z,24.71
2018-08-12T07:40:31.486Z,24.78
2018-08-12T07:44:34.975Z,24.92
2018-08-12T07:48:38.436Z,25.07
2018-08-12T07:52:43.247Z,25.24
2018-08-12T07:56:46.844Z,25.34
2018-08-12T08:00:50.312Z,25.36
2018-08-12T08:04:53.816Z,25.37
2018-08-12T08:08:57.275Z,25.48
2018-08-12T08:13:00.806Z,25.63
2018-08-12T08:17:04.291Z,25.74
2018-08-12T08:21:07.740Z,25.86
2018-08-12T08:25:11.871Z,25.96
2018-08-12T08:29:15.362Z,26.14
2018-08-12T08:33:18.795Z,26.30
2018-08-12T08:37:22.317Z,26.43
2018-08-12T08:41:25.813Z,26.59
2018-08-12T08:45:29.261Z,26.61
2018-08-12T08:49:32.729Z,26.70
2018-08-12T08:53:38.859Z,26.83
2018-08-12T08:57:42.422Z,27.00
2018-08-12T09:01:45.859Z,27.17
2018-08-12T09:05:49.343Z,27.21
2018-08-12T09:09:52.825Z,27.25
2018-08-12T09:13:56.272Z,27.25
2018-08-12T09:17:59.815Z,27.31
2018-08-12T09:22:03.275Z,27.34
2018-08-12T09:26:06.704Z,27.40
2018-08-12T09:30:13.097Z,27.49
2018-08-12T09:34:16.554Z,27.61
2018-08-12T09:38:20.024Z,27.73
2018-08-12T09:42:23.513Z,27.82
2018-08-12T09:46:26.949Z,27.97
2018-08-12T09:50:30.430Z,28.03
2018-08-12T09:54:33.929Z,28.09
2018-08-12T09:58:37.405Z,28.14
2018-08-12T10:02:40.828Z,28.15
2018-08-12T10:06:44.290Z,28.20
2018-08-12T10:10:47.792Z,28.30
2018-08-12T10:14:51.266Z,28.32
2018-08-12T10:18:54.810Z,28.41
2018-08-12T10:22:58.346Z,28.53
2018-08-12T10:27:01.788Z,28.69
2018-08-12T10:31:05.339Z,28.81
2018-08-12T10:35:10.258Z,28.90
2018-08-12T10:39:13.771Z,28.95
2018-08-12T10:43:17.235Z,29.03
2018-08-12T10:47:20.705Z,29.10
2018-08-12T10:51:24.144Z,29.16
2018-08-12T10:55:27.660Z,29.21
2018-08-12T10:59:31.311Z,29.26
2018-08-12T11:03:34.731Z,29.33
2018-08-12T11:07:38.253Z,29.32
2018-08-12T11:11:41.737Z,29.41
2018-08-12T11:15:45.207Z,29.48
2018-08-12T11:19:48.696Z,29.59
2018-08-12T11:23:52.175Z,29.71
2018-08-12T11:27:55.643Z,29.75
2018-08-12T11:31:59.126Z,29.84
2018-08-12T11:36:02.639Z,29.91
2018-08-12T11:40:07.303Z,30.01
2018-08-12T11:44:10.781Z,30.12
2018-08-12T11:48:14.259Z,30.26
2018-08-12T11:52:17.778Z,30.30
2018-08-12T11:56:21.198Z,30.32
2018-08-12T12:00:24.679Z,30.38
2018-08-12T12:04:28.165Z,30.46
2018-08-12T12:08:31.921Z,30.50
2018-08-12T12:12:35.466Z,30.54
2018-08-12T12:16:39.000Z,30.58
2018-08-12T12:20:42.531Z,30.58
2018-08-12T12:24:45.994Z,30.55
2018-08-12T12:28:49.639Z,30.57
2018-08-12T12:32:54.094Z,30.62
2018-08-12T12:36:57.685Z,30.63
2018-08-12T12:41:01.162Z,30.62
2018-08-12T12:45:06.010Z,30.66
2018-08-12T12:49:09.508Z,30.64
2018-08-12T12:53:12.998Z,30.66
2018-08-12T12:57:16.447Z,30.69
2018-08-12T13:01:20.010Z,30.70
2018-08-12T13:05:23.627Z,30.69
2018-08-12T13:09:27.072Z,30.63
2018-08-12T13:13:30.685Z,30.68
2018-08-12T13:17:34.256Z,30.73
2018-08-12T13:21:37.781Z,30.68
2018-08-12T13:25:41.267Z,30.57
2018-08-12T13:29:44.836Z,30.54
2018-08-12T13:33:48.321Z,30.59
2018-08-12T13:37:51.776Z,30.55
2018-08-12T13:41:55.378Z,30.58
2018-08-12T13:45:58.863Z,30.56
2018-08-12T13:50:02.468Z,30.56
2018-08-12T13:54:05.955Z,30.55
2018-08-12T13:58:10.075Z,30.63
2018-08-12T14:02:13.808Z,30.75
2018-08-12T14:06:17.379Z,30.71
2018-08-12T14:10:20.875Z,30.66
2018-08-12T14:14:24.334Z,30.57
2018-08-12T14:18:27.802Z,30.49
2018-08-12T14:22:31.315Z,30.48
2018-08-12T14:26:34.797Z,30.57
2018-08-12T14:30:38.333Z,30.63
2018-08-12T14:34:42.076Z,30.66
2018-08-12T14:38:45.790Z,30.66
2018-08-12T14:42:49.480Z,30.59
2018-08-12T14:46:53.142Z,30.63
2018-08-12T14:50:56.853Z,30.66
2018-08-12T14:55:00.548Z,30.60
2018-08-12T14:59:04.266Z,30.54
2018-08-12T15:03:07.928Z,30.47
2018-08-12T15:07:11.811Z,30.50
2018-08-12T15:11:15.488Z,30.50
2018-08-12T15:15:19.496Z,30.48
2018-08-12T15:19:23.632Z,30.46
2018-08-12T15:23:27.488Z,30.41
2018-08-12T15:27:31.197Z,30.38
2018-08-12T15:31:34.904Z,30.36
2018-08-12T15:35:38.583Z,30.35
2018-08-12T15:39:42.260Z,30.33
2018-08-12T15:43:45.965Z,30.30
2018-08-12T15:47:49.678Z,30.28
2018-08-12T15:51:53.355Z,30.30
2018-08-12T15:55:57.057Z,30.29
2018-08-12T16:00:00.755Z,30.28
2018-08-12T16:04:04.485Z,30.25
2018-08-12T16:08:08.211Z,30.22
2018-08-12T16:12:11.929Z,30.23
2018-08-12T16:16:15.689Z,30.19
2018-08-12T16:20:19.373Z,30.17
2018-08-12T16:24:23.061Z,30.14
2018-08-12T16:28:26.850Z,30.13
2018-08-12T16:32:30.582Z,30.10
2018-08-12T16:36:49.063Z,30.07
2018-08-12T16:40:52.881Z,29.98
2018-08-12T16:44:56.486Z,29.92
2018-08-12T16:49:00.316Z,29.87
2018-08-12T16:53:04.074Z,29.83
2018-08-12T16:57:11.654Z,29.78
2018-08-12T17:01:56.607Z,29.70
2018-08-12T17:10:44.314Z,29.54
2018-08-12T17:14:58.476Z,29.48
2018-08-12T17:19:11.172Z,29.39
2018-08-12T17:23:26.620Z,29.33
2018-08-12T17:32:09.617Z,29.24
2018-08-12T17:36:13.064Z,29.18
2018-08-12T17:40:17.582Z,29.13
2018-08-12T17:44:21.430Z,29.08
2018-08-12T17:48:24.938Z,29.04
2018-08-12T17:52:28.386Z,28.99
2018-08-12T17:56:31.881Z,28.89
2018-08-12T18:00:35.321Z,28.84
2018-08-12T18:04:38.818Z,28.77
2018-08-12T18:08:42.319Z,28.69
2018-08-12T18:12:45.764Z,28.62
2018-08-12T18:16:49.250Z,28.57
2018-08-12T18:20:52.738Z,28.49
2018-08-12T18:24:56.285Z,28.42
2018-08-12T18:28:59.816Z,28.35
2018-08-12T18:33:03.465Z,28.29
2018-08-12T18:37:07.074Z,28.21
2018-08-12T18:41:10.669Z,28.13
2018-08-12T18:45:14.258Z,28.04
2018-08-12T18:49:17.731Z,27.97
2018-08-12T18:53:21.233Z,27.88
2018-08-12T18:57:24.702Z,27.86
2018-08-12T19:01:28.181Z,27.82
2018-08-12T19:05:31.713Z,27.71
2018-08-12T19:09:35.205Z,27.61
2018-08-12T19:13:38.697Z,27.54
2018-08-12T19:17:42.175Z,27.47
2018-08-12T19:21:45.680Z,27.38
2018-08-12T19:25:49.098Z,27.28
2018-08-12T19:29:52.568Z,27.19
2018-08-12T19:33:56.262Z,27.14
2018-08-12T19:37:59.783Z,27.07
2018-08-12T19:42:03.225Z,26.98
2018-08-12T19:46:06.758Z,26.91
2018-08-12T19:50:10.301Z,26.86
2018-08-12T19:54:13.773Z,26.81
2018-08-12T19:58:17.223Z,26.75
2018-08-12T20:02:20.705Z,26.65
2018-08-12T20:06:24.183Z,26.62
2018-08-12T20:10:27.631Z,26.56
2018-08-12T20:14:31.228Z,26.49
2018-08-12T20:18:34.769Z,26.45
2018-08-12T20:22:38.211Z,26.39
2018-08-12T20:26:41.670Z,26.33
2018-08-12T20:30:45.190Z,26.30
2018-08-12T20:34:48.749Z,26.25
2018-08-12T20:38:52.189Z,26.23
2018-08-12T20:42:55.662Z,26.15
2018-08-12T20:46:59.137Z,26.09
2018-08-12T20:51:02.622Z,26.02
2018-08-12T21:36:15.756Z,25.52
2018-08-12T21:40:39.084Z,25.45
2018-08-12T21:45:08.544Z,25.38
2018-08-12T21:49:30.419Z,25.33
2018-08-12T21:53:45.249Z,25.29
2018-08-12T21:58:01.936Z,25.26
